Weather at Fiddyment Field [CLOSED]

Public forecast

Using degrees Fahrenheit for public forecast. Weather courtesy of forecast.io.

Closest aviation weather report (METAR) to Fiddyment Field

Closest report is Lincoln Regional Karl Harder Field, 7.1 nm (13.2 km) N. Retrieved 2021/01/21 22:35 UTC (0 seconds ago):

KLHM 212235Z AUTO 20006KT 10SM CLR 17/M01 A2998 RMK AO1

Closest aviation forecast (TAF) to Fiddyment Field

Closest forecast is Mc Clellan Airfield, 7.6 nm (14.1 km) S. Retrieved 2021/01/21 18:30 UTC (4 hours ago):

TAF KMCC 211728Z 2118/2218 16005KT P6SM SCT150 FM221500 15005KT P6SM SHRA OVC035